sensor_id;sensor_type;location;lat;lon;timestamp;P1;durP1;ratioP1;P2;durP2;ratioP2
4464;SDS011;2245;48.136;13.428;2022-08-19T00:01:40;7.87;;;7.07;;
4464;SDS011;2245;48.136;13.428;2022-08-19T00:04:08;7.90;;;7.13;;
4464;SDS011;2245;48.136;13.428;2022-08-19T00:06:37;13.73;;;8.70;;
4464;SDS011;2245;48.136;13.428;2022-08-19T00:09:06;11.77;;;8.20;;
4464;SDS011;2245;48.136;13.428;2022-08-19T00:11:35;8.53;;;7.00;;
4464;SDS011;2245;48.136;13.428;2022-08-19T00:14:02;11.40;;;7.30;;
4464;SDS011;2245;48.136;13.428;2022-08-19T00:16:29;8.93;;;7.80;;
4464;SDS011;2245;48.136;13.428;2022-08-19T00:18:56;7.93;;;7.03;;
4464;SDS011;2245;48.136;13.428;2022-08-19T00:21:24;8.40;;;7.60;;
4464;SDS011;2245;48.136;13.428;2022-08-19T00:23:52;7.47;;;6.77;;
4464;SDS011;2245;48.136;13.428;2022-08-19T00:26:20;7.70;;;7.00;;
4464;SDS011;2245;48.136;13.428;2022-08-19T00:28:47;9.77;;;6.77;;
4464;SDS011;2245;48.136;13.428;2022-08-19T00:31:14;9.60;;;8.03;;
4464;SDS011;2245;48.136;13.428;2022-08-19T00:33:41;8.80;;;7.87;;
4464;SDS011;2245;48.136;13.428;2022-08-19T00:36:08;8.90;;;7.53;;
4464;SDS011;2245;48.136;13.428;2022-08-19T00:38:36;8.37;;;7.17;;
4464;SDS011;2245;48.136;13.428;2022-08-19T00:41:08;8.50;;;6.57;;
4464;SDS011;2245;48.136;13.428;2022-08-19T00:43:36;10.00;;;7.30;;
4464;SDS011;2245;48.136;13.428;2022-08-19T00:46:03;8.60;;;7.40;;
4464;SDS011;2245;48.136;13.428;2022-08-19T00:48:30;8.07;;;7.27;;
4464;SDS011;2245;48.136;13.428;2022-08-19T00:50:58;11.63;;;8.90;;
4464;SDS011;2245;48.136;13.428;2022-08-19T00:53:27;8.50;;;7.60;;
4464;SDS011;2245;48.136;13.428;2022-08-19T00:55:56;8.90;;;8.00;;
4464;SDS011;2245;48.136;13.428;2022-08-19T00:58:26;11.53;;;8.60;;
4464;SDS011;2245;48.136;13.428;2022-08-19T01:00:57;11.10;;;8.80;;
4464;SDS011;2245;48.136;13.428;2022-08-19T01:03:24;10.30;;;8.17;;
4464;SDS011;2245;48.136;13.428;2022-08-19T01:05:50;10.93;;;9.03;;
4464;SDS011;2245;48.136;13.428;2022-08-19T01:08:19;14.13;;;9.70;;
4464;SDS011;2245;48.136;13.428;2022-08-19T01:10:47;14.97;;;9.80;;
4464;SDS011;2245;48.136;13.428;2022-08-19T01:13:16;16.80;;;9.40;;
4464;SDS011;2245;48.136;13.428;2022-08-19T01:15:45;10.33;;;9.33;;
4464;SDS011;2245;48.136;13.428;2022-08-19T01:18:15;13.93;;;10.40;;
4464;SDS011;2245;48.136;13.428;2022-08-19T01:20:43;12.13;;;10.03;;
4464;SDS011;2245;48.136;13.428;2022-08-19T01:23:12;14.23;;;10.80;;
4464;SDS011;2245;48.136;13.428;2022-08-19T01:25:40;16.87;;;11.77;;
4464;SDS011;2245;48.136;13.428;2022-08-19T01:28:12;13.10;;;10.03;;
4464;SDS011;2245;48.136;13.428;2022-08-19T01:30:43;14.77;;;10.87;;
4464;SDS011;2245;48.136;13.428;2022-08-19T01:33:10;12.67;;;10.57;;
4464;SDS011;2245;48.136;13.428;2022-08-19T01:35:37;15.73;;;12.53;;
4464;SDS011;2245;48.136;13.428;2022-08-19T01:38:05;19.33;;;15.40;;
4464;SDS011;2245;48.136;13.428;2022-08-19T01:40:37;17.13;;;13.03;;
4464;SDS011;2245;48.136;13.428;2022-08-19T01:43:07;17.13;;;13.93;;
4464;SDS011;2245;48.136;13.428;2022-08-19T01:45:34;20.13;;;13.73;;
4464;SDS011;2245;48.136;13.428;2022-08-19T01:48:02;19.70;;;13.33;;
4464;SDS011;2245;48.136;13.428;2022-08-19T01:50:30;17.90;;;12.53;;
4464;SDS011;2245;48.136;13.428;2022-08-19T01:52:58;18.70;;;13.60;;
4464;SDS011;2245;48.136;13.428;2022-08-19T01:55:26;20.07;;;14.70;;
4464;SDS011;2245;48.136;13.428;2022-08-19T01:57:55;20.03;;;15.20;;
4464;SDS011;2245;48.136;13.428;2022-08-19T02:00:25;21.90;;;16.07;;
4464;SDS011;2245;48.136;13.428;2022-08-19T02:02:53;20.57;;;15.27;;
4464;SDS011;2245;48.136;13.428;2022-08-19T02:05:20;22.23;;;16.10;;
4464;SDS011;2245;48.136;13.428;2022-08-19T02:07:48;21.97;;;15.93;;
4464;SDS011;2245;48.136;13.428;2022-08-19T02:10:17;18.97;;;14.93;;
4464;SDS011;2245;48.136;13.428;2022-08-19T02:12:46;18.00;;;12.97;;
4464;SDS011;2245;48.136;13.428;2022-08-19T02:15:15;21.23;;;15.90;;
4464;SDS011;2245;48.136;13.428;2022-08-19T02:17:44;20.37;;;15.67;;
4464;SDS011;2245;48.136;13.428;2022-08-19T02:20:11;27.33;;;17.60;;
4464;SDS011;2245;48.136;13.428;2022-08-19T02:22:38;25.17;;;16.83;;
4464;SDS011;2245;48.136;13.428;2022-08-19T02:25:08;20.13;;;15.03;;
4464;SDS011;2245;48.136;13.428;2022-08-19T02:27:35;16.97;;;13.50;;
4464;SDS011;2245;48.136;13.428;2022-08-19T02:30:03;21.23;;;15.70;;
4464;SDS011;2245;48.136;13.428;2022-08-19T02:32:32;18.23;;;14.37;;
4464;SDS011;2245;48.136;13.428;2022-08-19T02:34:59;21.33;;;15.23;;
4464;SDS011;2245;48.136;13.428;2022-08-19T02:37:26;20.50;;;16.57;;
4464;SDS011;2245;48.136;13.428;2022-08-19T02:40:11;21.60;;;15.33;;
4464;SDS011;2245;48.136;13.428;2022-08-19T02:42:38;23.30;;;15.97;;
4464;SDS011;2245;48.136;13.428;2022-08-19T02:45:06;19.73;;;15.80;;
4464;SDS011;2245;48.136;13.428;2022-08-19T02:47:35;22.67;;;15.73;;
4464;SDS011;2245;48.136;13.428;2022-08-19T02:50:02;20.80;;;15.50;;
4464;SDS011;2245;48.136;13.428;2022-08-19T02:52:31;21.53;;;16.27;;
4464;SDS011;2245;48.136;13.428;2022-08-19T02:54:58;22.73;;;17.00;;
4464;SDS011;2245;48.136;13.428;2022-08-19T02:57:26;26.87;;;17.23;;
4464;SDS011;2245;48.136;13.428;2022-08-19T02:59:53;23.23;;;16.87;;
4464;SDS011;2245;48.136;13.428;2022-08-19T03:02:20;22.80;;;16.90;;
4464;SDS011;2245;48.136;13.428;2022-08-19T03:04:48;26.47;;;17.87;;
4464;SDS011;2245;48.136;13.428;2022-08-19T03:07:16;29.57;;;18.47;;
4464;SDS011;2245;48.136;13.428;2022-08-19T03:09:43;29.10;;;21.00;;
4464;SDS011;2245;48.136;13.428;2022-08-19T03:12:10;27.37;;;19.97;;
4464;SDS011;2245;48.136;13.428;2022-08-19T03:14:37;30.70;;;20.67;;
4464;SDS011;2245;48.136;13.428;2022-08-19T03:17:04;26.20;;;18.97;;
4464;SDS011;2245;48.136;13.428;2022-08-19T03:19:31;24.33;;;17.30;;
4464;SDS011;2245;48.136;13.428;2022-08-19T03:21:59;28.90;;;20.17;;
4464;SDS011;2245;48.136;13.428;2022-08-19T03:24:27;26.07;;;18.80;;
4464;SDS011;2245;48.136;13.428;2022-08-19T03:26:56;40.73;;;22.03;;
4464;SDS011;2245;48.136;13.428;2022-08-19T03:29:23;22.13;;;16.70;;
4464;SDS011;2245;48.136;13.428;2022-08-19T03:31:51;25.83;;;18.90;;
4464;SDS011;2245;48.136;13.428;2022-08-19T03:34:20;23.87;;;17.13;;
4464;SDS011;2245;48.136;13.428;2022-08-19T03:36:51;22.63;;;16.50;;
4464;SDS011;2245;48.136;13.428;2022-08-19T03:39:20;25.47;;;17.20;;
4464;SDS011;2245;48.136;13.428;2022-08-19T03:41:48;30.10;;;17.40;;
4464;SDS011;2245;48.136;13.428;2022-08-19T03:44:16;24.23;;;18.07;;
4464;SDS011;2245;48.136;13.428;2022-08-19T03:46:46;28.43;;;16.57;;
4464;SDS011;2245;48.136;13.428;2022-08-19T03:49:13;26.53;;;17.17;;
4464;SDS011;2245;48.136;13.428;2022-08-19T03:51:41;24.20;;;16.87;;
4464;SDS011;2245;48.136;13.428;2022-08-19T03:54:09;21.83;;;16.93;;
4464;SDS011;2245;48.136;13.428;2022-08-19T03:56:39;23.10;;;16.10;;
4464;SDS011;2245;48.136;13.428;2022-08-19T03:59:09;21.57;;;14.90;;
4464;SDS011;2245;48.136;13.428;2022-08-19T04:01:38;19.43;;;14.87;;
4464;SDS011;2245;48.136;13.428;2022-08-19T04:04:06;21.20;;;15.37;;
4464;SDS011;2245;48.136;13.428;2022-08-19T04:06:33;24.83;;;15.80;;
4464;SDS011;2245;48.136;13.428;2022-08-19T04:09:02;23.07;;;15.57;;
4464;SDS011;2245;48.136;13.428;2022-08-19T04:11:33;22.10;;;15.80;;
4464;SDS011;2245;48.136;13.428;2022-08-19T04:14:08;23.60;;;16.23;;
4464;SDS011;2245;48.136;13.428;2022-08-19T04:16:36;23.33;;;16.47;;
4464;SDS011;2245;48.136;13.428;2022-08-19T04:19:04;26.70;;;17.53;;
4464;SDS011;2245;48.136;13.428;2022-08-19T04:21:32;18.70;;;15.50;;
4464;SDS011;2245;48.136;13.428;2022-08-19T04:23:59;21.70;;;14.57;;
4464;SDS011;2245;48.136;13.428;2022-08-19T04:26:27;21.73;;;15.10;;
4464;SDS011;2245;48.136;13.428;2022-08-19T04:28:57;23.57;;;15.87;;
4464;SDS011;2245;48.136;13.428;2022-08-19T04:31:26;17.73;;;13.50;;
4464;SDS011;2245;48.136;13.428;2022-08-19T04:33:54;22.13;;;15.40;;
4464;SDS011;2245;48.136;13.428;2022-08-19T04:36:24;23.63;;;15.77;;
4464;SDS011;2245;48.136;13.428;2022-08-19T04:38:53;21.40;;;15.17;;
4464;SDS011;2245;48.136;13.428;2022-08-19T04:41:20;28.83;;;18.47;;
4464;SDS011;2245;48.136;13.428;2022-08-19T04:44:05;22.23;;;16.13;;
4464;SDS011;2245;48.136;13.428;2022-08-19T04:46:33;30.70;;;18.37;;
4464;SDS011;2245;48.136;13.428;2022-08-19T04:49:00;21.20;;;15.27;;
4464;SDS011;2245;48.136;13.428;2022-08-19T04:51:30;26.77;;;17.23;;
4464;SDS011;2245;48.136;13.428;2022-08-19T04:53:57;21.27;;;16.43;;
4464;SDS011;2245;48.136;13.428;2022-08-19T04:56:25;23.70;;;16.70;;
4464;SDS011;2245;48.136;13.428;2022-08-19T04:58:52;22.37;;;17.23;;
4464;SDS011;2245;48.136;13.428;2022-08-19T05:01:21;33.60;;;17.17;;
4464;SDS011;2245;48.136;13.428;2022-08-19T05:03:50;27.70;;;16.27;;
4464;SDS011;2245;48.136;13.428;2022-08-19T05:06:18;27.27;;;19.43;;
4464;SDS011;2245;48.136;13.428;2022-08-19T05:08:46;25.93;;;16.43;;
4464;SDS011;2245;48.136;13.428;2022-08-19T05:11:14;27.93;;;17.20;;
4464;SDS011;2245;48.136;13.428;2022-08-19T05:13:42;26.20;;;16.40;;
4464;SDS011;2245;48.136;13.428;2022-08-19T05:16:10;22.33;;;15.23;;
4464;SDS011;2245;48.136;13.428;2022-08-19T05:18:38;23.23;;;17.13;;
4464;SDS011;2245;48.136;13.428;2022-08-19T05:21:24;24.60;;;17.23;;
4464;SDS011;2245;48.136;13.428;2022-08-19T05:24:08;22.90;;;16.40;;
4464;SDS011;2245;48.136;13.428;2022-08-19T05:26:36;24.03;;;16.20;;
4464;SDS011;2245;48.136;13.428;2022-08-19T05:29:03;23.33;;;16.07;;
4464;SDS011;2245;48.136;13.428;2022-08-19T05:31:30;27.40;;;18.00;;
4464;SDS011;2245;48.136;13.428;2022-08-19T05:33:57;28.80;;;17.07;;
4464;SDS011;2245;48.136;13.428;2022-08-19T05:36:26;26.00;;;18.20;;
4464;SDS011;2245;48.136;13.428;2022-08-19T05:38:54;27.97;;;19.20;;
4464;SDS011;2245;48.136;13.428;2022-08-19T05:41:21;25.13;;;17.70;;
4464;SDS011;2245;48.136;13.428;2022-08-19T05:43:54;27.40;;;19.23;;
4464;SDS011;2245;48.136;13.428;2022-08-19T05:46:21;26.90;;;17.47;;
4464;SDS011;2245;48.136;13.428;2022-08-19T05:48:48;27.13;;;18.77;;
4464;SDS011;2245;48.136;13.428;2022-08-19T05:51:15;30.40;;;19.37;;
4464;SDS011;2245;48.136;13.428;2022-08-19T05:53:44;25.17;;;18.87;;
4464;SDS011;2245;48.136;13.428;2022-08-19T05:56:12;27.73;;;18.10;;
4464;SDS011;2245;48.136;13.428;2022-08-19T05:58:41;24.13;;;17.60;;
4464;SDS011;2245;48.136;13.428;2022-08-19T06:01:10;24.87;;;18.07;;
4464;SDS011;2245;48.136;13.428;2022-08-19T06:03:39;28.63;;;17.90;;
4464;SDS011;2245;48.136;13.428;2022-08-19T06:06:07;27.40;;;17.20;;
4464;SDS011;2245;48.136;13.428;2022-08-19T06:08:36;22.17;;;16.40;;
4464;SDS011;2245;48.136;13.428;2022-08-19T06:11:15;24.57;;;18.43;;
4464;SDS011;2245;48.136;13.428;2022-08-19T06:13:43;23.70;;;17.20;;
4464;SDS011;2245;48.136;13.428;2022-08-19T06:16:12;22.57;;;16.90;;
4464;SDS011;2245;48.136;13.428;2022-08-19T06:18:44;34.73;;;16.80;;
4464;SDS011;2245;48.136;13.428;2022-08-19T06:21:11;18.70;;;14.33;;
4464;SDS011;2245;48.136;13.428;2022-08-19T06:23:38;37.00;;;30.43;;
4464;SDS011;2245;48.136;13.428;2022-08-19T06:26:05;22.40;;;20.00;;
4464;SDS011;2245;48.136;13.428;2022-08-19T06:28:34;23.50;;;17.30;;
4464;SDS011;2245;48.136;13.428;2022-08-19T06:31:05;22.60;;;17.43;;
4464;SDS011;2245;48.136;13.428;2022-08-19T06:33:32;27.13;;;21.90;;
4464;SDS011;2245;48.136;13.428;2022-08-19T06:36:00;24.87;;;17.10;;
4464;SDS011;2245;48.136;13.428;2022-08-19T06:38:26;26.50;;;18.27;;
4464;SDS011;2245;48.136;13.428;2022-08-19T06:40:59;21.63;;;15.23;;
4464;SDS011;2245;48.136;13.428;2022-08-19T06:43:27;22.70;;;14.27;;
4464;SDS011;2245;48.136;13.428;2022-08-19T06:45:55;17.77;;;14.10;;
4464;SDS011;2245;48.136;13.428;2022-08-19T06:48:22;19.50;;;15.33;;
4464;SDS011;2245;48.136;13.428;2022-08-19T06:50:49;22.20;;;18.37;;
4464;SDS011;2245;48.136;13.428;2022-08-19T06:53:16;17.97;;;15.17;;
4464;SDS011;2245;48.136;13.428;2022-08-19T06:55:44;15.77;;;13.30;;
4464;SDS011;2245;48.136;13.428;2022-08-19T06:58:11;19.70;;;16.13;;
4464;SDS011;2245;48.136;13.428;2022-08-19T07:00:38;15.80;;;13.23;;
4464;SDS011;2245;48.136;13.428;2022-08-19T07:03:06;24.10;;;20.03;;
4464;SDS011;2245;48.136;13.428;2022-08-19T07:05:37;19.83;;;16.37;;
4464;SDS011;2245;48.136;13.428;2022-08-19T07:08:05;21.90;;;16.97;;
4464;SDS011;2245;48.136;13.428;2022-08-19T07:10:32;18.70;;;14.53;;
4464;SDS011;2245;48.136;13.428;2022-08-19T07:13:00;22.30;;;16.80;;
4464;SDS011;2245;48.136;13.428;2022-08-19T07:15:27;37.73;;;25.60;;
4464;SDS011;2245;48.136;13.428;2022-08-19T07:17:53;20.60;;;16.30;;
4464;SDS011;2245;48.136;13.428;2022-08-19T07:20:22;19.40;;;14.93;;
4464;SDS011;2245;48.136;13.428;2022-08-19T07:22:49;14.50;;;12.60;;
4464;SDS011;2245;48.136;13.428;2022-08-19T07:25:16;14.93;;;13.03;;
4464;SDS011;2245;48.136;13.428;2022-08-19T07:27:44;20.13;;;12.57;;
4464;SDS011;2245;48.136;13.428;2022-08-19T07:30:11;17.33;;;12.27;;
4464;SDS011;2245;48.136;13.428;2022-08-19T07:32:38;17.97;;;12.30;;
4464;SDS011;2245;48.136;13.428;2022-08-19T07:35:06;14.27;;;12.37;;
4464;SDS011;2245;48.136;13.428;2022-08-19T07:37:35;15.23;;;12.63;;
4464;SDS011;2245;48.136;13.428;2022-08-19T07:40:04;18.50;;;12.97;;
4464;SDS011;2245;48.136;13.428;2022-08-19T07:42:32;15.73;;;12.30;;
4464;SDS011;2245;48.136;13.428;2022-08-19T07:44:59;16.20;;;13.30;;
4464;SDS011;2245;48.136;13.428;2022-08-19T07:47:26;16.97;;;12.10;;
4464;SDS011;2245;48.136;13.428;2022-08-19T07:49:53;14.83;;;12.33;;
4464;SDS011;2245;48.136;13.428;2022-08-19T07:52:20;18.00;;;13.40;;
4464;SDS011;2245;48.136;13.428;2022-08-19T07:54:48;15.23;;;12.20;;
4464;SDS011;2245;48.136;13.428;2022-08-19T07:57:16;16.93;;;14.00;;
4464;SDS011;2245;48.136;13.428;2022-08-19T07:59:44;17.17;;;13.63;;
4464;SDS011;2245;48.136;13.428;2022-08-19T08:02:11;18.07;;;11.93;;
4464;SDS011;2245;48.136;13.428;2022-08-19T08:04:38;17.93;;;14.17;;
4464;SDS011;2245;48.136;13.428;2022-08-19T08:07:22;20.00;;;14.47;;
4464;SDS011;2245;48.136;13.428;2022-08-19T08:10:08;18.00;;;14.23;;
4464;SDS011;2245;48.136;13.428;2022-08-19T08:12:36;15.97;;;13.43;;
4464;SDS011;2245;48.136;13.428;2022-08-19T08:15:07;19.43;;;14.30;;
4464;SDS011;2245;48.136;13.428;2022-08-19T08:17:36;18.57;;;15.07;;
4464;SDS011;2245;48.136;13.428;2022-08-19T08:20:04;17.80;;;14.27;;
4464;SDS011;2245;48.136;13.428;2022-08-19T08:22:32;21.33;;;14.40;;
4464;SDS011;2245;48.136;13.428;2022-08-19T08:25:22;18.30;;;14.83;;
4464;SDS011;2245;48.136;13.428;2022-08-19T08:27:50;17.00;;;13.63;;
4464;SDS011;2245;48.136;13.428;2022-08-19T08:30:18;19.57;;;13.47;;
4464;SDS011;2245;48.136;13.428;2022-08-19T08:32:45;20.13;;;14.70;;
4464;SDS011;2245;48.136;13.428;2022-08-19T08:35:13;16.93;;;14.70;;
4464;SDS011;2245;48.136;13.428;2022-08-19T08:37:41;18.03;;;14.83;;
4464;SDS011;2245;48.136;13.428;2022-08-19T08:40:11;19.43;;;14.57;;
4464;SDS011;2245;48.136;13.428;2022-08-19T08:42:47;20.53;;;15.57;;
4464;SDS011;2245;48.136;13.428;2022-08-19T08:45:18;16.80;;;14.37;;
4464;SDS011;2245;48.136;13.428;2022-08-19T08:47:46;19.07;;;15.03;;
4464;SDS011;2245;48.136;13.428;2022-08-19T08:50:16;18.87;;;14.63;;
4464;SDS011;2245;48.136;13.428;2022-08-19T08:52:45;21.10;;;16.93;;
4464;SDS011;2245;48.136;13.428;2022-08-19T08:55:16;25.50;;;17.30;;
4464;SDS011;2245;48.136;13.428;2022-08-19T08:57:50;22.50;;;18.10;;
4464;SDS011;2245;48.136;13.428;2022-08-19T09:00:20;22.90;;;16.17;;
4464;SDS011;2245;48.136;13.428;2022-08-19T09:02:50;19.37;;;16.00;;
4464;SDS011;2245;48.136;13.428;2022-08-19T09:05:17;23.37;;;18.17;;
4464;SDS011;2245;48.136;13.428;2022-08-19T09:07:49;21.57;;;14.80;;
4464;SDS011;2245;48.136;13.428;2022-08-19T09:10:21;18.53;;;16.20;;
4464;SDS011;2245;48.136;13.428;2022-08-19T09:13:03;15.70;;;13.40;;
4464;SDS011;2245;48.136;13.428;2022-08-19T09:15:36;19.93;;;13.37;;
4464;SDS011;2245;48.136;13.428;2022-08-19T09:18:09;16.00;;;12.60;;
4464;SDS011;2245;48.136;13.428;2022-08-19T09:20:36;17.90;;;14.43;;
4464;SDS011;2245;48.136;13.428;2022-08-19T09:23:03;16.27;;;14.57;;
4464;SDS011;2245;48.136;13.428;2022-08-19T09:25:30;22.10;;;15.50;;
4464;SDS011;2245;48.136;13.428;2022-08-19T09:28:01;17.30;;;15.30;;
4464;SDS011;2245;48.136;13.428;2022-08-19T09:30:29;19.50;;;15.80;;
4464;SDS011;2245;48.136;13.428;2022-08-19T09:32:59;18.10;;;13.87;;
4464;SDS011;2245;48.136;13.428;2022-08-19T09:35:26;22.83;;;15.77;;
4464;SDS011;2245;48.136;13.428;2022-08-19T09:37:55;18.40;;;15.30;;
4464;SDS011;2245;48.136;13.428;2022-08-19T09:40:22;17.23;;;13.47;;
4464;SDS011;2245;48.136;13.428;2022-08-19T09:42:49;18.57;;;15.53;;
4464;SDS011;2245;48.136;13.428;2022-08-19T09:45:19;15.90;;;13.90;;
4464;SDS011;2245;48.136;13.428;2022-08-19T09:47:47;17.00;;;14.20;;
4464;SDS011;2245;48.136;13.428;2022-08-19T09:50:16;20.70;;;16.33;;
4464;SDS011;2245;48.136;13.428;2022-08-19T09:52:43;17.60;;;14.80;;
4464;SDS011;2245;48.136;13.428;2022-08-19T09:55:13;19.77;;;13.87;;
4464;SDS011;2245;48.136;13.428;2022-08-19T09:57:41;17.50;;;14.23;;
4464;SDS011;2245;48.136;13.428;2022-08-19T10:00:08;18.93;;;15.70;;
4464;SDS011;2245;48.136;13.428;2022-08-19T10:02:37;16.50;;;14.20;;
4464;SDS011;2245;48.136;13.428;2022-08-19T10:05:04;18.53;;;16.07;;
4464;SDS011;2245;48.136;13.428;2022-08-19T10:07:47;41.83;;;16.70;;
4464;SDS011;2245;48.136;13.428;2022-08-19T10:10:15;19.17;;;15.57;;
4464;SDS011;2245;48.136;13.428;2022-08-19T10:12:42;20.97;;;16.07;;
4464;SDS011;2245;48.136;13.428;2022-08-19T10:15:12;26.17;;;19.20;;
4464;SDS011;2245;48.136;13.428;2022-08-19T10:17:41;23.10;;;16.03;;
4464;SDS011;2245;48.136;13.428;2022-08-19T10:20:08;29.53;;;18.97;;
4464;SDS011;2245;48.136;13.428;2022-08-19T10:22:38;16.43;;;13.30;;
4464;SDS011;2245;48.136;13.428;2022-08-19T10:25:06;18.23;;;15.20;;
4464;SDS011;2245;48.136;13.428;2022-08-19T10:27:34;20.23;;;15.63;;
4464;SDS011;2245;48.136;13.428;2022-08-19T10:30:02;21.00;;;15.23;;
4464;SDS011;2245;48.136;13.428;2022-08-19T10:32:30;14.87;;;13.30;;
4464;SDS011;2245;48.136;13.428;2022-08-19T10:34:58;17.70;;;14.87;;
4464;SDS011;2245;48.136;13.428;2022-08-19T10:37:25;16.57;;;14.67;;
4464;SDS011;2245;48.136;13.428;2022-08-19T10:39:52;19.87;;;16.13;;
4464;SDS011;2245;48.136;13.428;2022-08-19T10:42:19;23.40;;;17.57;;
4464;SDS011;2245;48.136;13.428;2022-08-19T10:44:46;21.00;;;18.53;;
4464;SDS011;2245;48.136;13.428;2022-08-19T10:47:13;18.83;;;16.77;;
4464;SDS011;2245;48.136;13.428;2022-08-19T10:49:40;21.13;;;15.73;;
4464;SDS011;2245;48.136;13.428;2022-08-19T10:52:22;19.67;;;16.27;;
4464;SDS011;2245;48.136;13.428;2022-08-19T10:55:02;18.60;;;16.47;;
4464;SDS011;2245;48.136;13.428;2022-08-19T10:57:47;21.83;;;16.60;;
4464;SDS011;2245;48.136;13.428;2022-08-19T11:00:15;16.13;;;14.27;;
4464;SDS011;2245;48.136;13.428;2022-08-19T11:02:42;19.47;;;15.87;;
4464;SDS011;2245;48.136;13.428;2022-08-19T11:05:09;18.07;;;16.10;;
4464;SDS011;2245;48.136;13.428;2022-08-19T11:07:38;16.90;;;13.90;;
4464;SDS011;2245;48.136;13.428;2022-08-19T11:10:06;14.60;;;12.70;;
4464;SDS011;2245;48.136;13.428;2022-08-19T11:12:36;16.13;;;14.43;;
4464;SDS011;2245;48.136;13.428;2022-08-19T11:15:03;17.70;;;14.07;;
4464;SDS011;2245;48.136;13.428;2022-08-19T11:17:31;17.13;;;15.20;;
4464;SDS011;2245;48.136;13.428;2022-08-19T11:19:58;18.80;;;15.87;;
4464;SDS011;2245;48.136;13.428;2022-08-19T11:22:27;18.83;;;13.27;;
4464;SDS011;2245;48.136;13.428;2022-08-19T11:24:56;18.00;;;14.77;;
4464;SDS011;2245;48.136;13.428;2022-08-19T11:27:22;15.53;;;12.47;;
4464;SDS011;2245;48.136;13.428;2022-08-19T11:29:49;14.60;;;13.10;;
4464;SDS011;2245;48.136;13.428;2022-08-19T11:32:17;15.40;;;12.70;;
4464;SDS011;2245;48.136;13.428;2022-08-19T11:34:44;14.03;;;9.90;;
4464;SDS011;2245;48.136;13.428;2022-08-19T11:37:11;9.93;;;8.93;;
4464;SDS011;2245;48.136;13.428;2022-08-19T11:39:38;10.50;;;9.40;;
4464;SDS011;2245;48.136;13.428;2022-08-19T11:42:07;11.00;;;9.87;;
4464;SDS011;2245;48.136;13.428;2022-08-19T11:44:47;10.73;;;8.97;;
4464;SDS011;2245;48.136;13.428;2022-08-19T11:47:14;7.87;;;7.17;;
4464;SDS011;2245;48.136;13.428;2022-08-19T11:49:41;12.20;;;10.27;;
4464;SDS011;2245;48.136;13.428;2022-08-19T11:52:08;11.03;;;10.03;;
4464;SDS011;2245;48.136;13.428;2022-08-19T11:54:36;13.30;;;12.00;;
4464;SDS011;2245;48.136;13.428;2022-08-19T11:57:03;10.07;;;9.13;;
4464;SDS011;2245;48.136;13.428;2022-08-19T11:59:31;11.93;;;9.33;;
4464;SDS011;2245;48.136;13.428;2022-08-19T12:01:58;11.50;;;10.17;;
4464;SDS011;2245;48.136;13.428;2022-08-19T12:04:25;11.37;;;10.27;;
4464;SDS011;2245;48.136;13.428;2022-08-19T12:06:52;10.20;;;9.20;;
4464;SDS011;2245;48.136;13.428;2022-08-19T12:09:19;13.67;;;10.97;;
4464;SDS011;2245;48.136;13.428;2022-08-19T12:11:47;12.43;;;11.03;;
4464;SDS011;2245;48.136;13.428;2022-08-19T12:14:14;13.73;;;11.60;;
4464;SDS011;2245;48.136;13.428;2022-08-19T12:16:43;11.03;;;9.43;;
4464;SDS011;2245;48.136;13.428;2022-08-19T12:19:11;17.33;;;10.13;;
4464;SDS011;2245;48.136;13.428;2022-08-19T12:21:38;17.33;;;10.37;;
4464;SDS011;2245;48.136;13.428;2022-08-19T12:24:05;12.57;;;9.40;;
4464;SDS011;2245;48.136;13.428;2022-08-19T12:26:33;9.07;;;8.07;;
4464;SDS011;2245;48.136;13.428;2022-08-19T12:29:00;10.63;;;9.00;;
4464;SDS011;2245;48.136;13.428;2022-08-19T12:31:26;9.93;;;8.97;;
4464;SDS011;2245;48.136;13.428;2022-08-19T12:33:55;11.60;;;10.43;;
4464;SDS011;2245;48.136;13.428;2022-08-19T12:36:22;11.30;;;10.20;;
4464;SDS011;2245;48.136;13.428;2022-08-19T12:38:49;11.13;;;10.07;;
4464;SDS011;2245;48.136;13.428;2022-08-19T12:41:17;11.70;;;10.13;;
4464;SDS011;2245;48.136;13.428;2022-08-19T12:43:47;11.13;;;9.50;;
4464;SDS011;2245;48.136;13.428;2022-08-19T12:46:15;9.67;;;8.63;;
4464;SDS011;2245;48.136;13.428;2022-08-19T12:48:42;10.53;;;9.40;;
4464;SDS011;2245;48.136;13.428;2022-08-19T12:51:13;9.53;;;8.63;;
4464;SDS011;2245;48.136;13.428;2022-08-19T12:53:41;7.80;;;7.20;;
4464;SDS011;2245;48.136;13.428;2022-08-19T12:56:10;16.97;;;9.47;;
4464;SDS011;2245;48.136;13.428;2022-08-19T12:58:39;12.20;;;8.83;;
4464;SDS011;2245;48.136;13.428;2022-08-19T13:01:07;9.70;;;8.70;;
4464;SDS011;2245;48.136;13.428;2022-08-19T13:03:36;9.00;;;7.50;;
4464;SDS011;2245;48.136;13.428;2022-08-19T13:06:03;8.93;;;8.07;;
4464;SDS011;2245;48.136;13.428;2022-08-19T13:08:32;10.57;;;9.53;;
4464;SDS011;2245;48.136;13.428;2022-08-19T13:11:06;9.03;;;8.07;;
4464;SDS011;2245;48.136;13.428;2022-08-19T13:13:33;12.70;;;8.50;;
4464;SDS011;2245;48.136;13.428;2022-08-19T13:16:00;8.47;;;7.77;;
4464;SDS011;2245;48.136;13.428;2022-08-19T13:18:29;14.60;;;8.13;;
4464;SDS011;2245;48.136;13.428;2022-08-19T13:20:56;8.47;;;7.60;;
4464;SDS011;2245;48.136;13.428;2022-08-19T13:23:23;11.07;;;7.93;;
4464;SDS011;2245;48.136;13.428;2022-08-19T13:25:56;12.53;;;8.33;;
4464;SDS011;2245;48.136;13.428;2022-08-19T13:28:24;9.73;;;8.77;;
4464;SDS011;2245;48.136;13.428;2022-08-19T13:30:51;10.67;;;9.60;;
4464;SDS011;2245;48.136;13.428;2022-08-19T13:33:35;12.03;;;8.87;;
4464;SDS011;2245;48.136;13.428;2022-08-19T13:36:02;9.80;;;8.87;;
4464;SDS011;2245;48.136;13.428;2022-08-19T13:38:32;11.17;;;8.70;;
4464;SDS011;2245;48.136;13.428;2022-08-19T13:41:04;10.80;;;9.70;;
4464;SDS011;2245;48.136;13.428;2022-08-19T13:43:32;10.40;;;9.43;;
4464;SDS011;2245;48.136;13.428;2022-08-19T13:45:59;10.13;;;9.07;;
4464;SDS011;2245;48.136;13.428;2022-08-19T13:48:27;14.13;;;9.80;;
4464;SDS011;2245;48.136;13.428;2022-08-19T13:50:56;10.80;;;9.80;;
4464;SDS011;2245;48.136;13.428;2022-08-19T13:53:23;11.93;;;9.10;;
4464;SDS011;2245;48.136;13.428;2022-08-19T13:55:50;10.23;;;9.20;;
4464;SDS011;2245;48.136;13.428;2022-08-19T13:58:20;10.57;;;9.57;;
4464;SDS011;2245;48.136;13.428;2022-08-19T14:00:47;12.00;;;10.60;;
4464;SDS011;2245;48.136;13.428;2022-08-19T14:03:14;10.57;;;9.43;;
4464;SDS011;2245;48.136;13.428;2022-08-19T14:05:41;15.80;;;10.03;;
4464;SDS011;2245;48.136;13.428;2022-08-19T14:08:08;12.40;;;9.33;;
4464;SDS011;2245;48.136;13.428;2022-08-19T14:10:35;13.73;;;8.73;;
4464;SDS011;2245;48.136;13.428;2022-08-19T14:13:02;11.60;;;8.80;;
4464;SDS011;2245;48.136;13.428;2022-08-19T14:15:31;13.63;;;8.93;;
4464;SDS011;2245;48.136;13.428;2022-08-19T14:17:58;10.90;;;9.80;;
4464;SDS011;2245;48.136;13.428;2022-08-19T14:20:25;10.50;;;9.50;;
4464;SDS011;2245;48.136;13.428;2022-08-19T14:22:52;10.90;;;9.80;;
4464;SDS011;2245;48.136;13.428;2022-08-19T14:25:23;11.80;;;9.20;;
4464;SDS011;2245;48.136;13.428;2022-08-19T14:27:51;11.27;;;10.17;;
4464;SDS011;2245;48.136;13.428;2022-08-19T14:30:19;11.20;;;10.07;;
4464;SDS011;2245;48.136;13.428;2022-08-19T14:32:49;14.80;;;11.20;;
4464;SDS011;2245;48.136;13.428;2022-08-19T14:35:16;10.63;;;9.40;;
4464;SDS011;2245;48.136;13.428;2022-08-19T14:37:44;11.50;;;10.30;;
4464;SDS011;2245;48.136;13.428;2022-08-19T14:40:12;11.47;;;10.00;;
4464;SDS011;2245;48.136;13.428;2022-08-19T14:42:40;13.80;;;10.00;;
4464;SDS011;2245;48.136;13.428;2022-08-19T14:45:08;11.97;;;10.33;;
4464;SDS011;2245;48.136;13.428;2022-08-19T14:47:35;16.63;;;10.87;;